Bader, Illinois
Current Conditions -  °F | °C
As of 4:15 AM on Tuesday 27 Jan 2015 (Local Time) from KIJX Reporting Station
Overcast Overcast  
Wind Chill: 33°   Ceiling: 3200
Heat Index: 38°   Visibility: 10mi
Dew Point: 35°   Wind: 8mph
Humidity: 88%   Direction: 330°NNW
Pressure: 29.98"   Gusts: NA
Location:  40.1574°N, 90.35°W
Report Text: KIJX 271015Z AUTO 33007KT 10SM OVC032 04/02 A2998 RMK AO2 T00360018
Loading
Personal Weather Stations






























Interactive Weather Map New forecast layout! Learn more

10-Day Weather Forecast

Advertisements
Track Severe Weather on mobile